createdAt,value
2022-11-24T00:01:17.852Z,12.09
2022-11-24T00:03:46.984Z,12.44
2022-11-24T00:06:15.986Z,12.55
2022-11-24T00:08:44.999Z,12.37
2022-11-24T00:11:18.400Z,12.60
2022-11-24T00:13:45.433Z,12.60
2022-11-24T00:16:17.449Z,12.77
2022-11-24T00:18:46.001Z,12.94
2022-11-24T00:21:13.814Z,13.02
2022-11-24T00:23:41.111Z,13.17
2022-11-24T00:26:13.777Z,13.12
2022-11-24T00:28:42.299Z,13.13
2022-11-24T00:31:17.974Z,12.95
2022-11-24T00:33:46.685Z,12.95
2022-11-24T00:36:13.901Z,12.99
2022-11-24T00:38:41.481Z,12.93
2022-11-24T00:41:08.442Z,12.75
2022-11-24T00:43:35.306Z,12.74
2022-11-24T00:46:02.442Z,12.71
2022-11-24T00:48:30.750Z,12.45
2022-11-24T00:51:00.056Z,12.58
2022-11-24T00:53:27.662Z,12.58
2022-11-24T00:55:55.628Z,12.50
2022-11-24T00:58:23.452Z,12.50
2022-11-24T01:00:51.271Z,12.19
2022-11-24T01:03:20.879Z,12.52
2022-11-24T01:05:47.923Z,12.60
2022-11-24T01:08:15.074Z,12.76
2022-11-24T01:10:41.925Z,12.59
2022-11-24T01:13:08.861Z,12.66
2022-11-24T01:15:36.918Z,12.60
2022-11-24T01:18:04.782Z,12.32
2022-11-24T01:20:32.300Z,12.17
2022-11-24T01:22:59.446Z,12.23
2022-11-24T01:25:26.355Z,11.75
2022-11-24T01:27:53.404Z,11.83
2022-11-24T01:30:23.194Z,12.00
2022-11-24T01:32:50.081Z,12.21
2022-11-24T01:35:16.900Z,12.08
2022-11-24T01:37:43.751Z,11.71
2022-11-24T01:40:11.241Z,11.47
2022-11-24T01:42:51.897Z,11.56
2022-11-24T01:45:27.300Z,11.56
2022-11-24T01:47:54.546Z,11.59
2022-11-24T01:50:21.946Z,11.85
2022-11-24T01:52:55.554Z,11.77
2022-11-24T01:55:27.821Z,11.46
2022-11-24T01:58:14.635Z,11.40
2022-11-24T02:00:44.433Z,11.25
2022-11-24T02:03:18.435Z,11.34
2022-11-24T02:05:57.960Z,11.38
2022-11-24T02:08:54.305Z,11.40
2022-11-24T02:11:24.265Z,11.69
2022-11-24T02:13:54.042Z,11.78
2022-11-24T02:16:21.338Z,11.29
2022-11-24T02:18:48.305Z,11.13
2022-11-24T02:21:16.584Z,11.44
2022-11-24T02:24:18.140Z,11.42
2022-11-24T02:26:47.367Z,11.41
2022-11-24T02:29:15.143Z,11.53
2022-11-24T02:31:47.682Z,11.56
2022-11-24T02:34:14.737Z,11.28
2022-11-24T02:36:41.675Z,10.91
2022-11-24T02:39:14.853Z,10.91
2022-11-24T02:41:57.210Z,11.11
2022-11-24T02:44:28.181Z,10.87
2022-11-24T02:47:06.983Z,10.96
2022-11-24T02:49:34.055Z,10.68
2022-11-24T02:52:01.181Z,10.71
2022-11-24T02:54:28.588Z,10.52
2022-11-24T02:56:55.671Z,10.29
2022-11-24T02:59:22.725Z,10.40
2022-11-24T03:01:49.976Z,10.61
2022-11-24T03:04:17.027Z,10.72
2022-11-24T03:06:44.119Z,10.75
2022-11-24T03:09:14.300Z,10.81
2022-11-24T03:11:41.321Z,10.65
2022-11-24T03:14:08.706Z,10.73
2022-11-24T03:16:35.949Z,10.71
2022-11-24T03:19:03.251Z,10.65
2022-11-24T03:21:30.288Z,10.99
2022-11-24T03:23:57.285Z,10.74
2022-11-24T03:26:25.949Z,10.78
2022-11-24T03:28:57.330Z,10.54
2022-11-24T03:31:24.602Z,10.61
2022-11-24T03:33:51.616Z,10.66
2022-11-24T03:36:18.842Z,10.88
2022-11-24T03:38:46.067Z,11.00
2022-11-24T03:41:13.156Z,11.11
2022-11-24T03:43:43.680Z,11.07
2022-11-24T03:46:12.344Z,11.08
2022-11-24T03:48:39.547Z,10.04
2022-11-24T03:51:06.896Z,9.68
2022-11-24T03:53:34.367Z,9.79
2022-11-24T03:56:04.985Z,10.13
2022-11-24T03:58:31.934Z,10.52
2022-11-24T04:00:59.008Z,10.63
2022-11-24T04:03:26.130Z,10.63
2022-11-24T04:05:53.227Z,10.60
2022-11-24T04:08:20.465Z,10.48
2022-11-24T04:10:54.260Z,10.66
2022-11-24T04:13:26.333Z,10.52
2022-11-24T04:15:53.724Z,9.97
2022-11-24T04:18:21.387Z,9.74
2022-11-24T04:20:52.285Z,9.76
2022-11-24T04:23:19.412Z,9.78
2022-11-24T04:25:46.408Z,9.87
2022-11-24T04:28:13.451Z,10.12
2022-11-24T04:30:44.873Z,10.35
2022-11-24T04:33:12.715Z,10.38
2022-11-24T04:35:39.640Z,10.17
2022-11-24T04:38:06.559Z,9.84
2022-11-24T04:40:33.470Z,9.37
2022-11-24T04:43:00.337Z,9.58
2022-11-24T04:45:27.256Z,9.88
2022-11-24T04:47:54.163Z,9.91
2022-11-24T04:50:21.280Z,10.08
2022-11-24T04:52:48.304Z,10.01
2022-11-24T04:55:15.239Z,10.14
2022-11-24T04:57:42.062Z,9.62
2022-11-24T05:00:10.539Z,9.91
2022-11-24T05:02:37.765Z,9.64
2022-11-24T05:05:06.109Z,9.77
2022-11-24T05:07:33.489Z,9.69
2022-11-24T05:10:18.915Z,9.64
2022-11-24T05:12:51.020Z,9.88
2022-11-24T05:15:18.430Z,10.39
2022-11-24T05:17:45.289Z,10.07
2022-11-24T05:20:12.215Z,9.81
2022-11-24T05:22:39.229Z,9.75
2022-11-24T05:25:06.397Z,9.27
2022-11-24T05:27:33.429Z,9.02
2022-11-24T05:30:00.430Z,8.87
2022-11-24T05:32:27.387Z,9.17
2022-11-24T05:34:54.753Z,9.62
2022-11-24T05:37:21.918Z,9.79
2022-11-24T05:39:48.954Z,9.49
2022-11-24T05:42:34.257Z,9.43
2022-11-24T05:45:01.121Z,10.29
2022-11-24T05:47:28.099Z,10.42
2022-11-24T05:49:55.013Z,10.74
2022-11-24T05:52:21.957Z,10.97
2022-11-24T05:54:49.013Z,11.02
2022-11-24T05:57:17.771Z,10.76
2022-11-24T05:59:45.413Z,10.72
2022-11-24T06:02:12.590Z,10.90
2022-11-24T06:04:39.595Z,10.72
2022-11-24T06:07:11.443Z,10.77
2022-11-24T06:09:39.528Z,11.47
2022-11-24T06:12:08.013Z,13.07
2022-11-24T06:14:35.632Z,13.61
2022-11-24T06:17:03.543Z,15.23
2022-11-24T06:19:30.515Z,16.66
2022-11-24T06:21:57.672Z,17.72
2022-11-24T06:24:24.609Z,17.74
2022-11-24T06:26:51.521Z,18.59
2022-11-24T06:29:18.500Z,19.43
2022-11-24T06:31:45.479Z,19.64
2022-11-24T06:34:13.338Z,19.47
2022-11-24T06:36:40.295Z,18.87
2022-11-24T06:39:07.909Z,18.33
2022-11-24T06:41:35.628Z,18.30
2022-11-24T06:44:04.237Z,19.24
2022-11-24T06:46:31.519Z,17.87
2022-11-24T06:48:59.938Z,17.87
2022-11-24T06:51:27.879Z,17.91
2022-11-24T06:53:55.487Z,19.29
2022-11-24T06:56:22.512Z,20.52
2022-11-24T06:58:52.214Z,20.47
2022-11-24T07:01:24.934Z,20.57
2022-11-24T07:03:53.166Z,19.68
2022-11-24T07:06:21.275Z,17.95
2022-11-24T07:08:48.187Z,16.81
2022-11-24T07:11:18.341Z,15.50
2022-11-24T07:13:46.069Z,14.90
2022-11-24T07:16:24.628Z,15.13
2022-11-24T07:18:53.139Z,15.63
2022-11-24T07:21:22.008Z,16.01
2022-11-24T07:23:50.337Z,16.31
2022-11-24T07:26:17.616Z,17.13
2022-11-24T07:28:45.199Z,17.74
2022-11-24T07:31:18.976Z,18.46
2022-11-24T07:33:54.223Z,19.20
2022-11-24T07:36:21.434Z,18.58
2022-11-24T07:38:48.722Z,19.18
2022-11-24T07:41:17.209Z,18.90
2022-11-24T07:43:44.136Z,18.97
2022-11-24T07:46:16.932Z,19.76
2022-11-24T07:48:44.378Z,19.97
2022-11-24T07:51:11.696Z,19.75
2022-11-24T07:53:38.940Z,19.78
2022-11-24T07:56:06.488Z,19.43
2022-11-24T07:58:36.141Z,19.62
2022-11-24T08:01:14.515Z,18.95
2022-11-24T08:03:42.585Z,19.05
2022-11-24T08:06:29.059Z,19.46
2022-11-24T08:08:57.288Z,18.81
2022-11-24T08:11:24.480Z,18.18
2022-11-24T08:13:51.380Z,18.59
2022-11-24T08:16:19.874Z,18.70
2022-11-24T08:18:54.712Z,18.08
2022-11-24T08:21:25.845Z,18.71
2022-11-24T08:23:57.299Z,18.90
2022-11-24T08:26:25.203Z,19.05
2022-11-24T08:28:57.570Z,19.19
2022-11-24T08:31:27.498Z,17.69
2022-11-24T08:33:56.201Z,18.20
2022-11-24T08:36:23.282Z,17.70
2022-11-24T08:38:54.901Z,17.68
2022-11-24T08:41:22.095Z,17.27
2022-11-24T08:43:48.986Z,16.47
2022-11-24T08:46:17.853Z,16.29
2022-11-24T08:48:50.273Z,16.46
2022-11-24T08:51:19.960Z,16.79
2022-11-24T08:53:47.177Z,17.18
2022-11-24T08:56:14.496Z,16.94
2022-11-24T08:58:42.957Z,16.34
2022-11-24T09:01:12.999Z,16.41
2022-11-24T09:03:44.981Z,16.54
2022-11-24T09:06:19.156Z,16.38
2022-11-24T09:08:46.221Z,16.26
2022-11-24T09:11:15.321Z,16.12
2022-11-24T09:13:42.321Z,16.20
2022-11-24T09:16:11.943Z,16.18
2022-11-24T09:18:38.948Z,15.50
2022-11-24T09:21:16.182Z,15.29
2022-11-24T09:23:44.072Z,14.85
2022-11-24T09:26:16.327Z,14.61
2022-11-24T09:28:44.055Z,14.61
2022-11-24T09:31:13.474Z,14.81
2022-11-24T09:33:41.661Z,15.12
2022-11-24T09:36:08.889Z,15.23
2022-11-24T09:38:35.819Z,15.33
2022-11-24T09:41:14.462Z,14.98
2022-11-24T09:44:06.436Z,15.01
2022-11-24T09:46:56.709Z,15.41
2022-11-24T09:49:42.045Z,14.89
2022-11-24T09:52:23.130Z,14.73
2022-11-24T09:55:01.276Z,15.02
2022-11-24T09:57:37.087Z,14.93
2022-11-24T10:00:13.017Z,14.29
2022-11-24T10:02:40.134Z,13.87
2022-11-24T10:05:08.689Z,13.64
2022-11-24T10:07:46.688Z,13.71
2022-11-24T10:10:25.266Z,14.14
2022-11-24T10:13:16.884Z,14.20
2022-11-24T10:16:04.414Z,13.90
2022-11-24T10:18:40.909Z,14.59
2022-11-24T10:21:23.170Z,14.56
2022-11-24T10:24:07.409Z,14.36
2022-11-24T10:26:43.128Z,14.31
2022-11-24T10:29:12.742Z,14.29
2022-11-24T10:31:45.887Z,13.96
2022-11-24T10:34:21.216Z,14.11
2022-11-24T10:37:03.706Z,14.37
2022-11-24T10:39:39.550Z,14.23
2022-11-24T10:42:38.654Z,14.56
2022-11-24T10:45:14.567Z,14.97
2022-11-24T10:47:43.008Z,14.88
2022-11-24T10:50:19.441Z,14.52
2022-11-24T10:53:04.427Z,14.52
2022-11-24T10:55:56.158Z,14.48
2022-11-24T10:58:38.005Z,14.38
2022-11-24T11:01:14.706Z,14.28
2022-11-24T11:03:57.935Z,13.69
2022-11-24T11:06:26.408Z,12.92
2022-11-24T11:09:08.310Z,12.68
2022-11-24T11:11:36.934Z,12.51
2022-11-24T11:14:08.957Z,12.35
2022-11-24T11:16:41.577Z,12.25
2022-11-24T11:19:54.164Z,12.27
2022-11-24T11:22:26.417Z,12.21
2022-11-24T11:25:36.200Z,12.16
2022-11-24T11:28:18.794Z,12.37
2022-11-24T11:31:17.976Z,12.30
2022-11-24T11:34:05.435Z,12.15
2022-11-24T11:36:34.596Z,11.97
2022-11-24T11:39:03.982Z,12.07
2022-11-24T11:41:36.310Z,12.01
2022-11-24T11:44:29.146Z,12.15
2022-11-24T11:46:58.759Z,12.27
2022-11-24T11:49:25.945Z,11.87
2022-11-24T11:52:13.963Z,11.70
2022-11-24T11:55:18.861Z,11.44
2022-11-24T11:58:02.279Z,11.38
2022-11-24T12:00:32.535Z,11.44
2022-11-24T12:03:18.022Z,11.23
2022-11-24T12:05:55.067Z,11.37
2022-11-24T12:09:11.428Z,11.46
2022-11-24T12:11:43.356Z,11.28
2022-11-24T12:14:41.715Z,11.36
2022-11-24T12:17:37.934Z,11.23
2022-11-24T12:20:13.880Z,11.26
2022-11-24T12:23:00.066Z,11.14
2022-11-24T12:25:56.212Z,10.99
2022-11-24T12:28:32.725Z,11.13
2022-11-24T12:31:07.211Z,11.64
2022-11-24T12:33:39.865Z,11.66
2022-11-24T12:36:34.481Z,11.98
2022-11-24T12:39:25.660Z,11.36
2022-11-24T12:42:00.351Z,11.30
2022-11-24T12:44:56.271Z,11.54
2022-11-24T12:47:52.621Z,11.26
2022-11-24T12:50:24.444Z,10.83
2022-11-24T12:53:10.098Z,10.65
2022-11-24T12:55:38.326Z,10.29
2022-11-24T12:58:22.542Z,10.59
2022-11-24T13:01:29.427Z,10.64
2022-11-24T13:04:32.384Z,10.47
2022-11-24T13:07:19.875Z,10.81
2022-11-24T13:13:14.659Z,10.74
2022-11-24T13:18:59.477Z,10.67
2022-11-24T13:21:41.780Z,10.23
2022-11-24T13:24:18.573Z,10.20
2022-11-24T13:26:49.472Z,10.27
2022-11-24T13:29:28.519Z,10.30
2022-11-24T13:32:05.103Z,10.30
2022-11-24T13:34:41.491Z,10.37
2022-11-24T13:37:31.898Z,10.25
2022-11-24T13:40:11.603Z,10.02
2022-11-24T13:42:58.994Z,10.04
2022-11-24T13:45:47.191Z,9.86
2022-11-24T13:48:20.469Z,9.90
2022-11-24T13:50:51.099Z,9.63
2022-11-24T13:53:27.237Z,9.86
2022-11-24T13:55:58.791Z,9.40
2022-11-24T13:58:37.061Z,9.31
2022-11-24T14:01:26.132Z,9.28
2022-11-24T14:04:29.374Z,9.24
2022-11-24T14:06:53.371Z,9.27
2022-11-24T14:09:25.731Z,8.94
2022-11-24T14:12:06.437Z,9.09
2022-11-24T14:14:33.733Z,9.05
2022-11-24T14:17:07.888Z,9.00
2022-11-24T14:19:34.886Z,9.02
2022-11-24T14:22:01.889Z,9.04
2022-11-24T14:24:38.092Z,9.05
2022-11-24T14:27:17.713Z,8.99
2022-11-24T14:30:16.935Z,8.99
2022-11-24T14:32:57.738Z,8.94
2022-11-24T14:35:28.836Z,8.92
2022-11-24T14:37:55.852Z,8.93
2022-11-24T14:40:42.702Z,8.88
2022-11-24T14:43:24.560Z,8.91
2022-11-24T14:46:18.087Z,9.05
2022-11-24T14:48:50.661Z,8.94
2022-11-24T14:51:20.167Z,9.25
2022-11-24T14:54:00.304Z,9.15
2022-11-24T14:56:36.906Z,9.15
2022-11-24T14:59:20.464Z,9.14
2022-11-24T15:01:47.576Z,9.29
2022-11-24T15:04:54.399Z,9.24
2022-11-24T15:07:44.566Z,9.28
2022-11-24T15:10:44.006Z,9.63
2022-11-24T15:13:20.608Z,9.32
2022-11-24T15:15:55.271Z,9.22
2022-11-24T15:18:32.638Z,9.40
2022-11-24T15:20:59.740Z,9.31
2022-11-24T15:23:27.600Z,9.36
2022-11-24T15:26:14.664Z,9.46
2022-11-24T15:28:41.542Z,9.44
2022-11-24T15:31:13.670Z,9.62
2022-11-24T15:33:42.395Z,9.36
2022-11-24T15:36:09.362Z,9.48
2022-11-24T15:38:36.223Z,9.45
2022-11-24T15:41:18.421Z,9.38
2022-11-24T15:43:45.513Z,9.32
2022-11-24T15:46:12.550Z,9.25
2022-11-24T15:48:39.496Z,9.24
2022-11-24T15:51:11.490Z,9.24
2022-11-24T15:53:42.731Z,9.31
2022-11-24T15:56:24.021Z,9.19
2022-11-24T15:58:51.096Z,9.19
2022-11-24T16:01:18.105Z,9.34
2022-11-24T16:03:47.415Z,9.34
2022-11-24T16:06:23.632Z,9.53
2022-11-24T16:08:51.772Z,9.39
2022-11-24T16:11:18.732Z,9.10
2022-11-24T16:13:51.942Z,9.07
2022-11-24T16:16:20.593Z,9.09
2022-11-24T16:18:48.201Z,9.02
2022-11-24T16:21:15.236Z,9.30
2022-11-24T16:23:42.195Z,9.10
2022-11-24T16:26:10.244Z,9.10
2022-11-24T16:28:37.133Z,8.88
2022-11-24T16:31:04.229Z,8.71
2022-11-24T16:33:31.287Z,8.68
2022-11-24T16:35:58.623Z,8.64
2022-11-24T16:38:25.522Z,8.61
2022-11-24T16:40:54.096Z,8.57
2022-11-24T16:43:21.059Z,8.52
2022-11-24T16:46:17.180Z,8.33
2022-11-24T16:48:45.246Z,8.26
2022-11-24T16:51:13.662Z,8.19
2022-11-24T16:53:41.140Z,8.12
2022-11-24T16:56:08.458Z,8.17
2022-11-24T16:58:39.898Z,8.45
2022-11-24T17:01:10.508Z,8.05
2022-11-24T17:03:38.238Z,7.88
2022-11-24T17:06:07.929Z,7.87
2022-11-24T17:08:36.347Z,7.75
2022-11-24T17:11:29.835Z,7.66
2022-11-24T17:13:58.162Z,7.43
2022-11-24T17:16:26.464Z,7.38
2022-11-24T17:18:54.317Z,7.34
2022-11-24T17:21:23.625Z,7.36
2022-11-24T17:23:59.479Z,7.43
2022-11-24T17:26:27.803Z,7.35
2022-11-24T17:28:56.113Z,7.25
2022-11-24T17:31:35.869Z,7.28
2022-11-24T17:34:04.897Z,7.26
2022-11-24T17:36:34.177Z,7.27
2022-11-24T17:39:04.873Z,7.22
2022-11-24T17:41:32.293Z,7.21
2022-11-24T17:43:59.569Z,7.29
2022-11-24T17:46:27.775Z,7.23
2022-11-24T17:48:55.454Z,7.20
2022-11-24T17:51:24.747Z,7.30
2022-11-24T17:53:53.099Z,7.27
2022-11-24T17:56:25.300Z,7.40
2022-11-24T17:58:54.386Z,7.22
2022-11-24T18:01:21.936Z,7.18
2022-11-24T18:03:53.518Z,7.23
2022-11-24T18:06:24.205Z,7.32
2022-11-24T18:08:52.641Z,7.31
2022-11-24T18:11:30.463Z,7.29
2022-11-24T18:14:02.041Z,7.25
2022-11-24T18:16:31.451Z,7.31
2022-11-24T18:19:09.821Z,7.20
2022-11-24T18:21:41.419Z,7.20
2022-11-24T18:24:09.975Z,7.10
2022-11-24T18:26:37.548Z,7.21
2022-11-24T18:29:04.723Z,7.19
2022-11-24T18:31:32.437Z,7.23
2022-11-24T18:33:59.679Z,7.28
2022-11-24T18:36:30.511Z,7.42
2022-11-24T18:39:01.230Z,7.25
2022-11-24T18:41:28.245Z,7.28
2022-11-24T18:43:55.173Z,7.37
2022-11-24T18:46:22.222Z,7.21
2022-11-24T18:48:51.661Z,7.30
2022-11-24T18:51:19.148Z,7.36
2022-11-24T18:53:47.227Z,7.28
2022-11-24T18:56:17.788Z,7.21
2022-11-24T18:58:45.233Z,7.10
2022-11-24T19:01:14.836Z,7.11
2022-11-24T19:03:49.025Z,7.12
2022-11-24T19:06:24.152Z,7.05
2022-11-24T19:08:53.780Z,7.06
2022-11-24T19:11:26.002Z,7.12
2022-11-24T19:13:52.880Z,7.19
2022-11-24T19:16:21.647Z,7.28
2022-11-24T19:18:53.924Z,7.23
2022-11-24T19:21:22.513Z,7.36
2022-11-24T19:23:50.158Z,7.22
2022-11-24T19:26:17.152Z,7.23
2022-11-24T19:28:44.745Z,7.16
2022-11-24T19:31:13.948Z,7.18
2022-11-24T19:33:41.568Z,7.04
2022-11-24T19:36:12.012Z,7.11
2022-11-24T19:38:39.193Z,7.11
2022-11-24T19:41:08.096Z,7.14
2022-11-24T19:43:35.442Z,7.12
2022-11-24T19:46:03.192Z,7.12
2022-11-24T19:48:34.869Z,7.06
2022-11-24T19:51:03.652Z,7.02
2022-11-24T19:53:31.216Z,7.06
2022-11-24T19:56:09.632Z,7.00
2022-11-24T19:58:36.964Z,7.02
2022-11-24T20:01:16.032Z,7.12
2022-11-24T20:03:44.823Z,6.99
2022-11-24T20:06:13.837Z,6.94
2022-11-24T20:08:41.695Z,6.92
2022-11-24T20:11:22.347Z,6.90
2022-11-24T20:13:50.049Z,6.82
2022-11-24T20:16:19.873Z,6.89
2022-11-24T20:18:47.803Z,6.93
2022-11-24T20:21:17.622Z,6.93
2022-11-24T20:23:46.320Z,6.93
2022-11-24T20:26:17.009Z,6.96
2022-11-24T20:28:43.881Z,7.06
2022-11-24T20:31:28.406Z,6.97
2022-11-24T20:33:55.594Z,6.94
2022-11-24T20:36:24.898Z,7.07
2022-11-24T20:38:53.455Z,6.96
2022-11-24T20:41:23.402Z,7.02
2022-11-24T20:43:51.744Z,6.96
2022-11-24T20:46:23.725Z,7.00
2022-11-24T20:48:51.265Z,6.96
2022-11-24T20:51:21.793Z,7.14
2022-11-24T20:53:50.078Z,7.09
2022-11-24T20:56:19.342Z,7.23
2022-11-24T20:58:46.753Z,7.21
2022-11-24T21:01:22.850Z,7.15
2022-11-24T21:03:55.318Z,7.07
2022-11-24T21:06:23.106Z,7.06
2022-11-24T21:08:51.124Z,7.03
2022-11-24T21:11:19.384Z,7.01
2022-11-24T21:13:48.828Z,7.00
2022-11-24T21:16:21.480Z,7.03
2022-11-24T21:18:53.417Z,6.94
2022-11-24T21:21:21.900Z,6.87
2022-11-24T21:23:49.663Z,6.81
2022-11-24T21:26:18.293Z,6.86
2022-11-24T21:28:47.252Z,6.83
2022-11-24T21:31:20.016Z,6.93
2022-11-24T21:33:49.575Z,6.91
2022-11-24T21:36:19.730Z,6.96
2022-11-24T21:38:57.721Z,6.94
2022-11-24T21:41:27.894Z,6.88
2022-11-24T21:43:58.356Z,6.78
2022-11-24T21:46:25.547Z,6.65
2022-11-24T21:48:52.491Z,6.63
2022-11-24T21:51:20.958Z,6.73
2022-11-24T21:53:47.961Z,6.69
2022-11-24T21:56:24.496Z,6.71
2022-11-24T21:58:56.593Z,6.67
2022-11-24T22:01:28.151Z,6.60
2022-11-24T22:03:56.279Z,6.64
2022-11-24T22:06:23.641Z,6.57
2022-11-24T22:08:50.732Z,6.59
2022-11-24T22:11:20.307Z,6.59
2022-11-24T22:13:47.818Z,6.64
2022-11-24T22:16:21.087Z,6.58
2022-11-24T22:18:48.607Z,6.67
2022-11-24T22:21:30.022Z,6.53
2022-11-24T22:23:57.413Z,6.54
2022-11-24T22:26:25.320Z,6.57
2022-11-24T22:28:54.008Z,6.53
2022-11-24T22:31:23.549Z,6.50
2022-11-24T22:33:51.773Z,6.51
2022-11-24T22:36:23.509Z,6.46
2022-11-24T22:38:58.397Z,6.44
2022-11-24T22:41:25.942Z,6.41
2022-11-24T22:43:53.750Z,6.49
2022-11-24T22:46:23.367Z,6.43
2022-11-24T22:48:53.064Z,6.37
2022-11-24T22:51:22.465Z,6.27
2022-11-24T22:53:51.529Z,6.36
2022-11-24T22:56:19.714Z,6.26
2022-11-24T22:58:46.960Z,6.25
2022-11-24T23:01:17.310Z,6.40
2022-11-24T23:03:45.092Z,6.41
2022-11-24T23:06:14.880Z,6.40
2022-11-24T23:08:42.386Z,6.30
2022-11-24T23:11:30.750Z,6.28
2022-11-24T23:14:02.837Z,6.23
2022-11-24T23:16:30.681Z,6.18
2022-11-24T23:18:58.148Z,6.24
2022-11-24T23:21:28.711Z,6.27
2022-11-24T23:23:56.277Z,6.24
2022-11-24T23:26:26.146Z,6.27
2022-11-24T23:28:53.145Z,6.21
2022-11-24T23:31:24.310Z,6.15
2022-11-24T23:33:51.359Z,6.21
2022-11-24T23:36:19.846Z,6.20
2022-11-24T23:38:48.041Z,6.24
2022-11-24T23:41:18.569Z,6.34
2022-11-24T23:43:45.592Z,6.25
2022-11-24T23:46:20.711Z,6.18
2022-11-24T23:48:50.707Z,6.09
2022-11-24T23:51:28.678Z,6.19
2022-11-24T23:53:56.587Z,6.24
2022-11-24T23:56:33.456Z,6.16
2022-11-24T23:59:02.576Z,6.17
